sensor_id;sensor_type;location;lat;lon;timestamp;temperature;humidity
26964;DHT22;14521;48.148;-1.656;2023-06-26T00:00:47;24.20;83.70
26964;DHT22;14521;48.148;-1.656;2023-06-26T00:04:10;24.10;83.40
26964;DHT22;14521;48.148;-1.656;2023-06-26T00:07:37;24.10;83.50
26964;DHT22;14521;48.148;-1.656;2023-06-26T00:10:59;24.00;83.60
26964;DHT22;14521;48.148;-1.656;2023-06-26T00:14:21;23.70;84.20
26964;DHT22;14521;48.148;-1.656;2023-06-26T00:17:44;23.70;84.40
26964;DHT22;14521;48.148;-1.656;2023-06-26T00:21:07;23.70;84.60
26964;DHT22;14521;48.148;-1.656;2023-06-26T00:24:29;23.60;84.40
26964;DHT22;14521;48.148;-1.656;2023-06-26T00:27:51;23.50;84.80
26964;DHT22;14521;48.148;-1.656;2023-06-26T00:31:13;23.60;84.70
26964;DHT22;14521;48.148;-1.656;2023-06-26T00:34:36;23.50;84.70
26964;DHT22;14521;48.148;-1.656;2023-06-26T00:37:58;23.40;85.60
26964;DHT22;14521;48.148;-1.656;2023-06-26T00:41:23;23.30;85.30
26964;DHT22;14521;48.148;-1.656;2023-06-26T00:44:46;23.20;85.60
26964;DHT22;14521;48.148;-1.656;2023-06-26T00:48:09;23.20;85.80
26964;DHT22;14521;48.148;-1.656;2023-06-26T00:51:33;23.10;85.80
26964;DHT22;14521;48.148;-1.656;2023-06-26T00:54:56;23.10;85.90
26964;DHT22;14521;48.148;-1.656;2023-06-26T00:58:19;23.10;85.60
26964;DHT22;14521;48.148;-1.656;2023-06-26T01:01:44;23.10;86.00
26964;DHT22;14521;48.148;-1.656;2023-06-26T01:05:07;22.90;86.20
26964;DHT22;14521;48.148;-1.656;2023-06-26T01:08:30;22.90;86.50
26964;DHT22;14521;48.148;-1.656;2023-06-26T01:11:52;22.70;86.70
26964;DHT22;14521;48.148;-1.656;2023-06-26T01:15:16;22.80;86.80
26964;DHT22;14521;48.148;-1.656;2023-06-26T01:18:39;22.80;86.70
26964;DHT22;14521;48.148;-1.656;2023-06-26T01:25:35;22.70;87.90
26964;DHT22;14521;48.148;-1.656;2023-06-26T01:29:03;22.70;87.20
26964;DHT22;14521;48.148;-1.656;2023-06-26T01:32:26;22.60;87.30
26964;DHT22;14521;48.148;-1.656;2023-06-26T01:35:50;22.60;87.30
26964;DHT22;14521;48.148;-1.656;2023-06-26T01:39:17;22.50;87.60
26964;DHT22;14521;48.148;-1.656;2023-06-26T01:42:39;22.50;87.50
26964;DHT22;14521;48.148;-1.656;2023-06-26T01:46:06;22.50;87.60
26964;DHT22;14521;48.148;-1.656;2023-06-26T01:53:02;22.30;87.90
26964;DHT22;14521;48.148;-1.656;2023-06-26T01:56:28;22.20;88.50
26964;DHT22;14521;48.148;-1.656;2023-06-26T01:59:53;22.10;89.00
26964;DHT22;14521;48.148;-1.656;2023-06-26T02:03:16;22.10;89.10
26964;DHT22;14521;48.148;-1.656;2023-06-26T02:06:39;22.00;89.60
26964;DHT22;14521;48.148;-1.656;2023-06-26T02:10:02;22.00;89.80
26964;DHT22;14521;48.148;-1.656;2023-06-26T02:13:25;22.00;89.70
26964;DHT22;14521;48.148;-1.656;2023-06-26T02:16:47;21.80;90.10
26964;DHT22;14521;48.148;-1.656;2023-06-26T02:20:10;21.70;90.20
26964;DHT22;14521;48.148;-1.656;2023-06-26T02:23:32;21.70;90.30
26964;DHT22;14521;48.148;-1.656;2023-06-26T02:26:55;21.60;90.30
26964;DHT22;14521;48.148;-1.656;2023-06-26T02:30:17;21.60;90.30
26964;DHT22;14521;48.148;-1.656;2023-06-26T02:33:41;21.70;90.20
26964;DHT22;14521;48.148;-1.656;2023-06-26T02:37:04;21.70;90.30
26964;DHT22;14521;48.148;-1.656;2023-06-26T02:40:29;21.70;90.20
26964;DHT22;14521;48.148;-1.656;2023-06-26T02:43:51;21.60;90.30
26964;DHT22;14521;48.148;-1.656;2023-06-26T02:47:14;21.70;90.30
26964;DHT22;14521;48.148;-1.656;2023-06-26T02:50:38;21.70;90.20
26964;DHT22;14521;48.148;-1.656;2023-06-26T02:54:05;21.70;90.10
26964;DHT22;14521;48.148;-1.656;2023-06-26T02:57:27;21.50;90.30
26964;DHT22;14521;48.148;-1.656;2023-06-26T03:00:50;21.60;90.40
26964;DHT22;14521;48.148;-1.656;2023-06-26T03:04:13;21.60;90.40
26964;DHT22;14521;48.148;-1.656;2023-06-26T03:07:37;21.60;90.30
26964;DHT22;14521;48.148;-1.656;2023-06-26T03:11:00;21.60;90.20
26964;DHT22;14521;48.148;-1.656;2023-06-26T03:14:22;21.50;90.40
26964;DHT22;14521;48.148;-1.656;2023-06-26T03:17:44;21.30;90.60
26964;DHT22;14521;48.148;-1.656;2023-06-26T03:21:13;21.20;90.70
26964;DHT22;14521;48.148;-1.656;2023-06-26T03:24:35;21.10;90.90
26964;DHT22;14521;48.148;-1.656;2023-06-26T03:27:57;21.00;91.00
26964;DHT22;14521;48.148;-1.656;2023-06-26T03:31:20;21.00;91.00
26964;DHT22;14521;48.148;-1.656;2023-06-26T03:34:43;21.00;91.10
26964;DHT22;14521;48.148;-1.656;2023-06-26T03:38:05;21.00;91.10
26964;DHT22;14521;48.148;-1.656;2023-06-26T03:41:28;21.00;90.90
26964;DHT22;14521;48.148;-1.656;2023-06-26T03:44:50;21.10;90.90
26964;DHT22;14521;48.148;-1.656;2023-06-26T03:48:13;21.10;90.70
26964;DHT22;14521;48.148;-1.656;2023-06-26T03:51:36;21.20;90.70
26964;DHT22;14521;48.148;-1.656;2023-06-26T03:54:58;21.20;90.60
26964;DHT22;14521;48.148;-1.656;2023-06-26T03:58:21;21.20;90.60
26964;DHT22;14521;48.148;-1.656;2023-06-26T04:01:43;21.20;90.60
26964;DHT22;14521;48.148;-1.656;2023-06-26T04:05:06;21.20;90.60
26964;DHT22;14521;48.148;-1.656;2023-06-26T04:08:28;21.10;90.50
26964;DHT22;14521;48.148;-1.656;2023-06-26T04:11:51;21.10;90.70
26964;DHT22;14521;48.148;-1.656;2023-06-26T04:15:14;21.10;90.70
26964;DHT22;14521;48.148;-1.656;2023-06-26T04:18:36;21.10;90.70
26964;DHT22;14521;48.148;-1.656;2023-06-26T04:21:58;21.10;90.60
26964;DHT22;14521;48.148;-1.656;2023-06-26T04:25:21;21.20;90.50
26964;DHT22;14521;48.148;-1.656;2023-06-26T04:28:43;21.10;90.60
26964;DHT22;14521;48.148;-1.656;2023-06-26T04:32:06;21.00;90.90
26964;DHT22;14521;48.148;-1.656;2023-06-26T04:35:29;21.00;90.80
26964;DHT22;14521;48.148;-1.656;2023-06-26T04:38:51;20.90;91.00
26964;DHT22;14521;48.148;-1.656;2023-06-26T04:42:13;20.90;91.00
26964;DHT22;14521;48.148;-1.656;2023-06-26T04:45:35;20.90;91.00
26964;DHT22;14521;48.148;-1.656;2023-06-26T04:48:58;20.90;90.90
26964;DHT22;14521;48.148;-1.656;2023-06-26T04:52:20;20.80;91.10
26964;DHT22;14521;48.148;-1.656;2023-06-26T04:55:42;20.80;91.10
26964;DHT22;14521;48.148;-1.656;2023-06-26T04:59:05;20.80;91.30
26964;DHT22;14521;48.148;-1.656;2023-06-26T05:02:27;20.70;91.40
26964;DHT22;14521;48.148;-1.656;2023-06-26T05:05:50;20.70;92.10
26964;DHT22;14521;48.148;-1.656;2023-06-26T05:09:12;21.30;91.50
26964;DHT22;14521;48.148;-1.656;2023-06-26T05:12:34;21.80;90.40
26964;DHT22;14521;48.148;-1.656;2023-06-26T05:15:56;22.10;90.90
26964;DHT22;14521;48.148;-1.656;2023-06-26T05:19:19;22.30;90.00
26964;DHT22;14521;48.148;-1.656;2023-06-26T05:22:41;22.50;88.40
26964;DHT22;14521;48.148;-1.656;2023-06-26T05:26:04;22.60;87.50
26964;DHT22;14521;48.148;-1.656;2023-06-26T05:29:27;22.60;87.00
26964;DHT22;14521;48.148;-1.656;2023-06-26T05:32:49;22.70;86.50
26964;DHT22;14521;48.148;-1.656;2023-06-26T05:36:13;22.70;86.60
26964;DHT22;14521;48.148;-1.656;2023-06-26T05:39:36;22.80;88.00
26964;DHT22;14521;48.148;-1.656;2023-06-26T05:42:58;22.90;87.30
26964;DHT22;14521;48.148;-1.656;2023-06-26T05:46:20;22.90;86.00
26964;DHT22;14521;48.148;-1.656;2023-06-26T05:49:43;22.90;86.60
26964;DHT22;14521;48.148;-1.656;2023-06-26T05:53:05;23.10;86.60
26964;DHT22;14521;48.148;-1.656;2023-06-26T05:56:28;23.10;86.20
26964;DHT22;14521;48.148;-1.656;2023-06-26T05:59:51;23.10;85.30
26964;DHT22;14521;48.148;-1.656;2023-06-26T06:03:13;23.20;85.70
26964;DHT22;14521;48.148;-1.656;2023-06-26T06:06:36;23.20;84.70
26964;DHT22;14521;48.148;-1.656;2023-06-26T06:09:58;23.20;85.30
26964;DHT22;14521;48.148;-1.656;2023-06-26T06:13:21;23.30;84.90
26964;DHT22;14521;48.148;-1.656;2023-06-26T06:16:43;23.30;84.60
26964;DHT22;14521;48.148;-1.656;2023-06-26T06:20:05;23.40;84.50
26964;DHT22;14521;48.148;-1.656;2023-06-26T06:23:28;23.50;85.00
26964;DHT22;14521;48.148;-1.656;2023-06-26T06:26:50;23.70;85.50
26964;DHT22;14521;48.148;-1.656;2023-06-26T06:30:13;23.70;83.90
26964;DHT22;14521;48.148;-1.656;2023-06-26T06:33:35;23.80;84.10
26964;DHT22;14521;48.148;-1.656;2023-06-26T06:36:57;23.80;84.00
26964;DHT22;14521;48.148;-1.656;2023-06-26T06:40:19;23.90;84.10
26964;DHT22;14521;48.148;-1.656;2023-06-26T06:43:44;24.10;83.60
26964;DHT22;14521;48.148;-1.656;2023-06-26T06:47:06;24.10;83.80
26964;DHT22;14521;48.148;-1.656;2023-06-26T06:50:29;24.20;84.30
26964;DHT22;14521;48.148;-1.656;2023-06-26T06:53:51;24.20;84.20
26964;DHT22;14521;48.148;-1.656;2023-06-26T06:57:13;24.30;84.10
26964;DHT22;14521;48.148;-1.656;2023-06-26T07:00:36;24.30;83.70
26964;DHT22;14521;48.148;-1.656;2023-06-26T07:03:58;24.40;83.90
26964;DHT22;14521;48.148;-1.656;2023-06-26T07:07:21;24.40;83.50
26964;DHT22;14521;48.148;-1.656;2023-06-26T07:10:44;24.50;83.30
26964;DHT22;14521;48.148;-1.656;2023-06-26T07:14:07;24.50;83.30
26964;DHT22;14521;48.148;-1.656;2023-06-26T07:17:29;24.50;83.60
26964;DHT22;14521;48.148;-1.656;2023-06-26T07:20:51;24.60;83.50
26964;DHT22;14521;48.148;-1.656;2023-06-26T07:24:14;24.60;83.20
26964;DHT22;14521;48.148;-1.656;2023-06-26T07:27:37;24.60;81.70
26964;DHT22;14521;48.148;-1.656;2023-06-26T07:31:01;24.50;80.00
26964;DHT22;14521;48.148;-1.656;2023-06-26T07:34:24;24.30;79.80
26964;DHT22;14521;48.148;-1.656;2023-06-26T07:37:46;24.10;80.50
26964;DHT22;14521;48.148;-1.656;2023-06-26T07:41:08;23.90;80.30
26964;DHT22;14521;48.148;-1.656;2023-06-26T07:44:31;23.60;80.10
26964;DHT22;14521;48.148;-1.656;2023-06-26T07:47:53;23.40;80.60
26964;DHT22;14521;48.148;-1.656;2023-06-26T07:51:15;23.40;80.80
26964;DHT22;14521;48.148;-1.656;2023-06-26T07:54:38;23.40;80.70
26964;DHT22;14521;48.148;-1.656;2023-06-26T07:58:00;23.30;81.20
26964;DHT22;14521;48.148;-1.656;2023-06-26T08:01:24;23.40;81.10
26964;DHT22;14521;48.148;-1.656;2023-06-26T08:04:46;23.40;80.00
26964;DHT22;14521;48.148;-1.656;2023-06-26T08:08:08;23.50;79.50
26964;DHT22;14521;48.148;-1.656;2023-06-26T08:11:31;23.60;79.30
26964;DHT22;14521;48.148;-1.656;2023-06-26T08:14:53;23.50;78.50
26964;DHT22;14521;48.148;-1.656;2023-06-26T08:18:15;23.60;78.50
26964;DHT22;14521;48.148;-1.656;2023-06-26T08:21:38;23.60;78.10
26964;DHT22;14521;48.148;-1.656;2023-06-26T08:25:00;23.60;78.00
26964;DHT22;14521;48.148;-1.656;2023-06-26T08:28:22;23.60;78.30
26964;DHT22;14521;48.148;-1.656;2023-06-26T08:31:44;23.70;78.20
26964;DHT22;14521;48.148;-1.656;2023-06-26T08:35:07;23.70;77.90
26964;DHT22;14521;48.148;-1.656;2023-06-26T08:38:32;23.60;77.80
26964;DHT22;14521;48.148;-1.656;2023-06-26T08:41:55;23.70;77.90
26964;DHT22;14521;48.148;-1.656;2023-06-26T08:45:17;23.70;77.50
26964;DHT22;14521;48.148;-1.656;2023-06-26T08:48:41;23.70;76.80
26964;DHT22;14521;48.148;-1.656;2023-06-26T08:52:17;23.90;76.80
26964;DHT22;14521;48.148;-1.656;2023-06-26T08:55:41;23.90;76.40
26964;DHT22;14521;48.148;-1.656;2023-06-26T08:59:05;23.90;76.10
26964;DHT22;14521;48.148;-1.656;2023-06-26T09:02:28;23.90;76.30
26964;DHT22;14521;48.148;-1.656;2023-06-26T09:05:50;24.00;74.70
26964;DHT22;14521;48.148;-1.656;2023-06-26T09:09:13;24.00;73.40
26964;DHT22;14521;48.148;-1.656;2023-06-26T09:12:36;23.90;72.50
26964;DHT22;14521;48.148;-1.656;2023-06-26T09:15:59;24.00;73.40
26964;DHT22;14521;48.148;-1.656;2023-06-26T09:19:21;24.10;75.70
26964;DHT22;14521;48.148;-1.656;2023-06-26T09:22:47;24.30;76.70
26964;DHT22;14521;48.148;-1.656;2023-06-26T09:26:11;24.40;75.90
26964;DHT22;14521;48.148;-1.656;2023-06-26T09:29:33;24.50;74.60
26964;DHT22;14521;48.148;-1.656;2023-06-26T09:32:56;24.60;74.30
26964;DHT22;14521;48.148;-1.656;2023-06-26T09:36:20;24.60;75.20
26964;DHT22;14521;48.148;-1.656;2023-06-26T09:39:44;24.60;74.20
26964;DHT22;14521;48.148;-1.656;2023-06-26T09:43:07;24.70;73.90
26964;DHT22;14521;48.148;-1.656;2023-06-26T09:46:30;24.70;74.70
26964;DHT22;14521;48.148;-1.656;2023-06-26T09:49:53;24.70;73.90
26964;DHT22;14521;48.148;-1.656;2023-06-26T09:53:17;24.70;74.30
26964;DHT22;14521;48.148;-1.656;2023-06-26T09:56:40;24.80;73.40
26964;DHT22;14521;48.148;-1.656;2023-06-26T10:00:03;24.80;72.70
26964;DHT22;14521;48.148;-1.656;2023-06-26T10:03:33;24.90;72.50
26964;DHT22;14521;48.148;-1.656;2023-06-26T10:06:56;24.90;72.80
26964;DHT22;14521;48.148;-1.656;2023-06-26T10:10:19;24.90;73.20
26964;DHT22;14521;48.148;-1.656;2023-06-26T10:13:47;24.90;72.00
26964;DHT22;14521;48.148;-1.656;2023-06-26T10:17:13;24.90;70.10
26964;DHT22;14521;48.148;-1.656;2023-06-26T10:20:37;24.90;71.20
26964;DHT22;14521;48.148;-1.656;2023-06-26T10:24:03;24.90;69.90
26964;DHT22;14521;48.148;-1.656;2023-06-26T10:27:33;24.90;69.60
26964;DHT22;14521;48.148;-1.656;2023-06-26T10:30:58;24.90;70.70
26964;DHT22;14521;48.148;-1.656;2023-06-26T10:34:22;24.90;68.60
26964;DHT22;14521;48.148;-1.656;2023-06-26T10:37:47;25.00;69.40
26964;DHT22;14521;48.148;-1.656;2023-06-26T10:41:10;25.00;69.80
26964;DHT22;14521;48.148;-1.656;2023-06-26T10:44:41;25.00;70.60
26964;DHT22;14521;48.148;-1.656;2023-06-26T10:48:05;24.90;70.10
26964;DHT22;14521;48.148;-1.656;2023-06-26T10:51:28;24.90;65.30
26964;DHT22;14521;48.148;-1.656;2023-06-26T10:54:54;24.90;65.50
26964;DHT22;14521;48.148;-1.656;2023-06-26T11:02:05;25.10;68.20
26964;DHT22;14521;48.148;-1.656;2023-06-26T11:05:33;25.10;69.30
26964;DHT22;14521;48.148;-1.656;2023-06-26T11:12:38;25.20;68.80
26964;DHT22;14521;48.148;-1.656;2023-06-26T11:16:01;25.20;70.40
26964;DHT22;14521;48.148;-1.656;2023-06-26T11:19:26;25.30;71.80
26964;DHT22;14521;48.148;-1.656;2023-06-26T11:22:52;25.30;70.40
26964;DHT22;14521;48.148;-1.656;2023-06-26T11:26:16;25.30;69.80
26964;DHT22;14521;48.148;-1.656;2023-06-26T11:29:47;25.40;69.30
26964;DHT22;14521;48.148;-1.656;2023-06-26T11:33:10;25.50;69.30
26964;DHT22;14521;48.148;-1.656;2023-06-26T11:36:32;25.50;70.20
26964;DHT22;14521;48.148;-1.656;2023-06-26T11:39:55;25.50;69.90
26964;DHT22;14521;48.148;-1.656;2023-06-26T11:43:20;25.50;71.50
26964;DHT22;14521;48.148;-1.656;2023-06-26T11:46:42;25.50;70.30
26964;DHT22;14521;48.148;-1.656;2023-06-26T11:50:05;25.50;70.10
26964;DHT22;14521;48.148;-1.656;2023-06-26T11:53:27;25.40;68.20
26964;DHT22;14521;48.148;-1.656;2023-06-26T11:56:56;25.40;68.70
26964;DHT22;14521;48.148;-1.656;2023-06-26T12:00:19;25.50;69.50
26964;DHT22;14521;48.148;-1.656;2023-06-26T12:03:42;25.50;68.10
26964;DHT22;14521;48.148;-1.656;2023-06-26T12:07:06;25.40;67.20
26964;DHT22;14521;48.148;-1.656;2023-06-26T12:10:31;25.40;66.30
26964;DHT22;14521;48.148;-1.656;2023-06-26T12:13:53;25.40;66.10
26964;DHT22;14521;48.148;-1.656;2023-06-26T12:17:15;25.30;65.80
26964;DHT22;14521;48.148;-1.656;2023-06-26T12:20:40;25.30;66.60
26964;DHT22;14521;48.148;-1.656;2023-06-26T12:24:03;25.30;66.20
26964;DHT22;14521;48.148;-1.656;2023-06-26T12:27:25;25.40;66.70
26964;DHT22;14521;48.148;-1.656;2023-06-26T12:31:17;25.40;65.70
26964;DHT22;14521;48.148;-1.656;2023-06-26T12:34:48;25.40;67.40
26964;DHT22;14521;48.148;-1.656;2023-06-26T12:38:10;25.40;67.10
26964;DHT22;14521;48.148;-1.656;2023-06-26T12:41:55;25.50;65.20
26964;DHT22;14521;48.148;-1.656;2023-06-26T12:45:17;25.50;64.00
26964;DHT22;14521;48.148;-1.656;2023-06-26T12:48:43;25.50;65.00
26964;DHT22;14521;48.148;-1.656;2023-06-26T12:52:12;25.40;64.10
26964;DHT22;14521;48.148;-1.656;2023-06-26T12:55:36;25.50;64.00
26964;DHT22;14521;48.148;-1.656;2023-06-26T12:58:58;25.50;62.80
26964;DHT22;14521;48.148;-1.656;2023-06-26T13:02:21;25.50;62.70
26964;DHT22;14521;48.148;-1.656;2023-06-26T13:05:43;25.50;63.20
26964;DHT22;14521;48.148;-1.656;2023-06-26T13:09:05;25.50;62.90
26964;DHT22;14521;48.148;-1.656;2023-06-26T13:12:28;25.40;61.20
26964;DHT22;14521;48.148;-1.656;2023-06-26T13:15:51;25.40;62.40
26964;DHT22;14521;48.148;-1.656;2023-06-26T13:19:13;25.40;61.80
26964;DHT22;14521;48.148;-1.656;2023-06-26T13:22:36;25.40;63.90
26964;DHT22;14521;48.148;-1.656;2023-06-26T13:25:58;25.40;62.90
26964;DHT22;14521;48.148;-1.656;2023-06-26T13:29:20;25.40;63.40
26964;DHT22;14521;48.148;-1.656;2023-06-26T13:32:43;25.40;64.60
26964;DHT22;14521;48.148;-1.656;2023-06-26T13:36:05;25.50;64.20
26964;DHT22;14521;48.148;-1.656;2023-06-26T13:39:28;25.40;61.70
26964;DHT22;14521;48.148;-1.656;2023-06-26T13:42:50;25.30;62.30
26964;DHT22;14521;48.148;-1.656;2023-06-26T13:46:13;25.30;63.20
26964;DHT22;14521;48.148;-1.656;2023-06-26T13:49:35;25.40;63.00
26964;DHT22;14521;48.148;-1.656;2023-06-26T13:52:57;25.40;63.10
26964;DHT22;14521;48.148;-1.656;2023-06-26T13:56:20;25.50;62.30
26964;DHT22;14521;48.148;-1.656;2023-06-26T13:59:42;25.50;61.60
26964;DHT22;14521;48.148;-1.656;2023-06-26T14:03:07;25.50;62.40
26964;DHT22;14521;48.148;-1.656;2023-06-26T14:06:30;25.50;63.70
26964;DHT22;14521;48.148;-1.656;2023-06-26T14:09:54;25.60;63.40
26964;DHT22;14521;48.148;-1.656;2023-06-26T14:13:16;25.60;63.50
26964;DHT22;14521;48.148;-1.656;2023-06-26T14:16:40;25.60;63.40
26964;DHT22;14521;48.148;-1.656;2023-06-26T14:20:03;25.60;62.60
26964;DHT22;14521;48.148;-1.656;2023-06-26T14:23:34;25.60;62.90
26964;DHT22;14521;48.148;-1.656;2023-06-26T14:26:56;25.60;63.80
26964;DHT22;14521;48.148;-1.656;2023-06-26T14:30:19;25.60;65.30
26964;DHT22;14521;48.148;-1.656;2023-06-26T14:33:41;25.60;64.70
26964;DHT22;14521;48.148;-1.656;2023-06-26T14:37:04;25.60;65.20
26964;DHT22;14521;48.148;-1.656;2023-06-26T14:40:26;25.70;63.70
26964;DHT22;14521;48.148;-1.656;2023-06-26T14:43:49;25.60;64.20
26964;DHT22;14521;48.148;-1.656;2023-06-26T14:47:13;25.50;62.70
26964;DHT22;14521;48.148;-1.656;2023-06-26T14:50:36;25.40;62.40
26964;DHT22;14521;48.148;-1.656;2023-06-26T14:54:00;25.40;63.50
26964;DHT22;14521;48.148;-1.656;2023-06-26T14:57:22;25.40;63.60
26964;DHT22;14521;48.148;-1.656;2023-06-26T15:00:44;25.50;63.40
26964;DHT22;14521;48.148;-1.656;2023-06-26T15:04:06;25.50;63.00
26964;DHT22;14521;48.148;-1.656;2023-06-26T15:07:29;25.50;62.90
26964;DHT22;14521;48.148;-1.656;2023-06-26T15:10:51;25.50;63.70
26964;DHT22;14521;48.148;-1.656;2023-06-26T15:14:14;25.50;64.00
26964;DHT22;14521;48.148;-1.656;2023-06-26T15:17:36;25.50;63.80
26964;DHT22;14521;48.148;-1.656;2023-06-26T15:20:58;25.60;63.90
26964;DHT22;14521;48.148;-1.656;2023-06-26T15:24:21;25.60;64.80
26964;DHT22;14521;48.148;-1.656;2023-06-26T15:27:43;25.50;64.60
26964;DHT22;14521;48.148;-1.656;2023-06-26T15:31:05;25.50;65.00
26964;DHT22;14521;48.148;-1.656;2023-06-26T15:34:27;25.50;64.90
26964;DHT22;14521;48.148;-1.656;2023-06-26T15:37:50;25.50;65.30
26964;DHT22;14521;48.148;-1.656;2023-06-26T15:41:12;25.40;65.00
26964;DHT22;14521;48.148;-1.656;2023-06-26T15:44:34;25.40;65.70
26964;DHT22;14521;48.148;-1.656;2023-06-26T15:47:57;25.50;65.80
26964;DHT22;14521;48.148;-1.656;2023-06-26T15:51:19;25.50;66.20
26964;DHT22;14521;48.148;-1.656;2023-06-26T15:54:41;25.50;65.50
26964;DHT22;14521;48.148;-1.656;2023-06-26T15:58:04;25.50;65.50
26964;DHT22;14521;48.148;-1.656;2023-06-26T16:01:26;25.50;65.20
26964;DHT22;14521;48.148;-1.656;2023-06-26T16:04:49;25.50;65.20
26964;DHT22;14521;48.148;-1.656;2023-06-26T16:08:11;25.50;65.90
26964;DHT22;14521;48.148;-1.656;2023-06-26T16:11:33;25.40;65.70
26964;DHT22;14521;48.148;-1.656;2023-06-26T16:14:56;25.40;65.70
26964;DHT22;14521;48.148;-1.656;2023-06-26T16:18:18;25.40;65.80
26964;DHT22;14521;48.148;-1.656;2023-06-26T16:21:40;25.40;65.80
26964;DHT22;14521;48.148;-1.656;2023-06-26T16:25:03;25.30;66.30
26964;DHT22;14521;48.148;-1.656;2023-06-26T16:28:25;25.20;66.20
26964;DHT22;14521;48.148;-1.656;2023-06-26T16:31:47;25.20;66.30
26964;DHT22;14521;48.148;-1.656;2023-06-26T16:35:11;25.20;66.80
26964;DHT22;14521;48.148;-1.656;2023-06-26T16:38:33;25.20;66.10
26964;DHT22;14521;48.148;-1.656;2023-06-26T16:41:55;25.20;66.10
26964;DHT22;14521;48.148;-1.656;2023-06-26T16:45:17;25.10;65.70
26964;DHT22;14521;48.148;-1.656;2023-06-26T16:48:40;25.20;65.60
26964;DHT22;14521;48.148;-1.656;2023-06-26T16:52:02;25.10;65.60
26964;DHT22;14521;48.148;-1.656;2023-06-26T16:55:24;25.00;65.70
26964;DHT22;14521;48.148;-1.656;2023-06-26T16:58:47;25.00;66.10
26964;DHT22;14521;48.148;-1.656;2023-06-26T17:02:09;25.00;66.20
26964;DHT22;14521;48.148;-1.656;2023-06-26T17:05:32;25.10;65.70
26964;DHT22;14521;48.148;-1.656;2023-06-26T17:08:56;25.00;66.40
26964;DHT22;14521;48.148;-1.656;2023-06-26T17:12:18;25.10;66.40
26964;DHT22;14521;48.148;-1.656;2023-06-26T17:15:40;25.10;66.40
26964;DHT22;14521;48.148;-1.656;2023-06-26T17:19:03;25.10;67.20
26964;DHT22;14521;48.148;-1.656;2023-06-26T17:22:25;25.10;67.10
26964;DHT22;14521;48.148;-1.656;2023-06-26T17:25:48;25.00;67.20
26964;DHT22;14521;48.148;-1.656;2023-06-26T17:29:10;25.10;68.00
26964;DHT22;14521;48.148;-1.656;2023-06-26T17:32:33;25.00;68.10
26964;DHT22;14521;48.148;-1.656;2023-06-26T17:35:55;25.00;68.40
26964;DHT22;14521;48.148;-1.656;2023-06-26T17:39:17;25.00;68.60
26964;DHT22;14521;48.148;-1.656;2023-06-26T17:42:41;24.90;68.90
26964;DHT22;14521;48.148;-1.656;2023-06-26T17:46:06;25.00;69.20
26964;DHT22;14521;48.148;-1.656;2023-06-26T17:49:29;24.90;69.30
26964;DHT22;14521;48.148;-1.656;2023-06-26T17:52:51;24.90;69.20
26964;DHT22;14521;48.148;-1.656;2023-06-26T17:56:14;25.00;69.70
26964;DHT22;14521;48.148;-1.656;2023-06-26T17:59:36;25.10;69.20
26964;DHT22;14521;48.148;-1.656;2023-06-26T18:02:58;25.10;69.10
26964;DHT22;14521;48.148;-1.656;2023-06-26T18:06:21;25.20;69.20
26964;DHT22;14521;48.148;-1.656;2023-06-26T18:09:45;25.10;68.90
26964;DHT22;14521;48.148;-1.656;2023-06-26T18:13:07;25.10;68.80
26964;DHT22;14521;48.148;-1.656;2023-06-26T18:16:30;25.10;68.70
26964;DHT22;14521;48.148;-1.656;2023-06-26T18:19:53;25.10;69.30
26964;DHT22;14521;48.148;-1.656;2023-06-26T18:23:15;25.10;68.80
26964;DHT22;14521;48.148;-1.656;2023-06-26T18:26:37;25.10;68.70
26964;DHT22;14521;48.148;-1.656;2023-06-26T18:30:00;25.10;68.90
26964;DHT22;14521;48.148;-1.656;2023-06-26T18:33:22;25.10;68.70
26964;DHT22;14521;48.148;-1.656;2023-06-26T18:36:47;25.10;68.80
26964;DHT22;14521;48.148;-1.656;2023-06-26T18:40:10;25.00;69.00
26964;DHT22;14521;48.148;-1.656;2023-06-26T18:43:39;25.00;69.10
26964;DHT22;14521;48.148;-1.656;2023-06-26T18:47:01;25.00;69.30
26964;DHT22;14521;48.148;-1.656;2023-06-26T18:50:23;24.90;68.80
26964;DHT22;14521;48.148;-1.656;2023-06-26T18:53:49;24.90;69.30
26964;DHT22;14521;48.148;-1.656;2023-06-26T18:57:11;24.90;69.30
26964;DHT22;14521;48.148;-1.656;2023-06-26T19:00:34;24.90;69.50
26964;DHT22;14521;48.148;-1.656;2023-06-26T19:03:56;24.90;69.90
26964;DHT22;14521;48.148;-1.656;2023-06-26T19:07:18;24.90;69.70
26964;DHT22;14521;48.148;-1.656;2023-06-26T19:10:41;24.90;69.80
26964;DHT22;14521;48.148;-1.656;2023-06-26T19:14:04;24.80;70.30
26964;DHT22;14521;48.148;-1.656;2023-06-26T19:17:26;24.60;70.80
26964;DHT22;14521;48.148;-1.656;2023-06-26T19:20:49;24.50;71.70
26964;DHT22;14521;48.148;-1.656;2023-06-26T19:24:11;24.40;71.70
26964;DHT22;14521;48.148;-1.656;2023-06-26T19:27:33;24.30;72.10
26964;DHT22;14521;48.148;-1.656;2023-06-26T19:30:55;24.20;72.10
26964;DHT22;14521;48.148;-1.656;2023-06-26T19:34:18;24.40;72.30
26964;DHT22;14521;48.148;-1.656;2023-06-26T19:37:41;24.60;72.20
26964;DHT22;14521;48.148;-1.656;2023-06-26T19:41:23;24.80;71.80
26964;DHT22;14521;48.148;-1.656;2023-06-26T19:44:45;24.90;71.40
26964;DHT22;14521;48.148;-1.656;2023-06-26T19:48:07;25.10;71.20
26964;DHT22;14521;48.148;-1.656;2023-06-26T19:51:30;25.20;71.60
26964;DHT22;14521;48.148;-1.656;2023-06-26T19:54:52;25.30;71.10
26964;DHT22;14521;48.148;-1.656;2023-06-26T19:58:15;25.30;71.50
26964;DHT22;14521;48.148;-1.656;2023-06-26T20:01:37;25.40;71.40
26964;DHT22;14521;48.148;-1.656;2023-06-26T20:04:59;25.50;71.40
26964;DHT22;14521;48.148;-1.656;2023-06-26T20:08:22;25.50;71.60
26964;DHT22;14521;48.148;-1.656;2023-06-26T20:11:44;25.50;71.30
26964;DHT22;14521;48.148;-1.656;2023-06-26T20:15:07;25.50;71.20
26964;DHT22;14521;48.148;-1.656;2023-06-26T20:18:29;25.50;72.10
26964;DHT22;14521;48.148;-1.656;2023-06-26T20:21:53;25.60;71.90
26964;DHT22;14521;48.148;-1.656;2023-06-26T20:25:15;25.60;72.40
26964;DHT22;14521;48.148;-1.656;2023-06-26T20:28:37;25.60;72.10
26964;DHT22;14521;48.148;-1.656;2023-06-26T20:32:00;25.60;71.80
26964;DHT22;14521;48.148;-1.656;2023-06-26T20:35:22;25.60;71.90
26964;DHT22;14521;48.148;-1.656;2023-06-26T20:38:44;25.70;72.20
26964;DHT22;14521;48.148;-1.656;2023-06-26T20:42:07;25.60;72.10
26964;DHT22;14521;48.148;-1.656;2023-06-26T20:45:30;25.60;71.60
26964;DHT22;14521;48.148;-1.656;2023-06-26T20:48:52;25.70;71.60
26964;DHT22;14521;48.148;-1.656;2023-06-26T20:52:17;25.70;72.00
26964;DHT22;14521;48.148;-1.656;2023-06-26T20:55:40;25.70;72.40
26964;DHT22;14521;48.148;-1.656;2023-06-26T20:59:02;25.70;72.40
26964;DHT22;14521;48.148;-1.656;2023-06-26T21:02:25;25.70;72.60
26964;DHT22;14521;48.148;-1.656;2023-06-26T21:05:47;25.70;72.40
26964;DHT22;14521;48.148;-1.656;2023-06-26T21:09:09;25.70;72.40
26964;DHT22;14521;48.148;-1.656;2023-06-26T21:12:32;25.70;72.40
26964;DHT22;14521;48.148;-1.656;2023-06-26T21:15:54;25.70;72.60